Time;durP1;ratioP1;P1;durP2;ratioP2;P2;SDS_P1;SDS_P2;PMS_P1;PMS_P2;Temp;Humidity;BMP_temperature;BMP_pressure;BME280_temperature;BME280_humidity;BME280_pressure;Samples;Min_cycle;Max_cycle;Signal;HPM_P1;HPM_P2
2021/01/23 00:01:29;;;;;;;37.60;20.52;;;;;;;2.06;92.10;100001.30;1715295;82;21121;-75
2021/01/23 00:03:57;;;;;;;39.83;21.65;;;;;;;2.10;92.12;100003.94;1679656;84;21097;-75
2021/01/23 00:06:25;;;;;;;39.55;21.33;;;;;;;2.13;92.12;100011.09;1715644;82;21197;-79
2021/01/23 00:08:53;;;;;;;38.38;20.88;;;;;;;2.17;92.04;100002.09;1687141;83;21135;-75
2021/01/23 00:11:21;;;;;;;38.67;20.40;;;;;;;2.17;91.97;99998.88;1690982;85;21179;-74
2021/01/23 00:13:49;;;;;;;38.23;19.65;;;;;;;2.18;92.02;100002.39;1707153;82;21081;-76
2021/01/23 00:16:16;;;;;;;38.40;21.40;;;;;;;2.19;92.10;100002.72;1711997;84;21129;-77
2021/01/23 00:18:44;;;;;;;40.48;20.25;;;;;;;2.18;92.18;99996.98;1704602;83;21109;-76
2021/01/23 00:21:13;;;;;;;43.00;22.80;;;;;;;2.18;92.16;99999.69;1720261;83;21519;-75
2021/01/23 00:23:40;;;;;;;43.92;22.32;;;;;;;2.18;92.26;99998.34;1714010;83;21070;-76
2021/01/23 00:26:08;;;;;;;40.03;21.10;;;;;;;2.18;92.31;99996.98;1715525;84;21125;-76
2021/01/23 00:28:36;;;;;;;39.75;21.57;;;;;;;2.17;92.29;99998.88;1709856;83;21812;-76
2021/01/23 00:31:05;;;;;;;38.53;20.20;;;;;;;2.19;92.31;99993.27;1702637;84;21474;-76
2021/01/23 00:33:33;;;;;;;52.78;24.55;;;;;;;2.20;92.31;99998.45;1724457;82;21033;-75
2021/01/23 00:36:01;;;;;;;39.35;22.60;;;;;;;2.19;92.41;99990.06;1676249;82;21124;-75
2021/01/23 00:38:28;;;;;;;36.85;19.52;;;;;;;2.22;92.46;99996.92;1699663;84;21114;-74
2021/01/23 00:40:56;;;;;;;37.50;19.32;;;;;;;2.21;92.49;99987.14;1685968;82;21114;-74
2021/01/23 00:43:24;;;;;;;39.18;19.95;;;;;;;2.22;92.54;99986.13;1711951;84;21096;-79
2021/01/23 00:45:53;;;;;;;34.83;18.97;;;;;;;2.20;92.43;99980.91;1697189;82;21069;-79
2021/01/23 00:48:21;;;;;;;35.60;19.60;;;;;;;2.20;92.51;99982.80;1656109;85;21120;-78
2021/01/23 00:50:49;;;;;;;34.70;19.00;;;;;;;2.22;92.61;99980.21;1702794;82;21696;-81
2021/01/23 00:53:18;;;;;;;37.58;18.48;;;;;;;2.24;92.65;99978.65;1719675;83;21085;-78
2021/01/23 00:55:47;;;;;;;37.90;19.73;;;;;;;2.26;92.64;99981.46;1706866;83;21061;-75
2021/01/23 00:58:14;;;;;;;44.25;21.27;;;;;;;2.24;92.57;99978.65;1705941;84;21076;-76
2021/01/23 01:00:42;;;;;;;36.93;19.48;;;;;;;2.22;92.52;99973.47;1709148;83;21081;-77
2021/01/23 01:03:10;;;;;;;40.10;21.35;;;;;;;2.20;92.57;99979.55;1715599;84;21146;-77
2021/01/23 01:05:40;;;;;;;37.43;20.33;;;;;;;2.18;92.59;99974.04;1712917;83;23482;-76
2021/01/23 01:08:08;;;;;;;42.65;20.80;;;;;;;2.17;92.62;99977.80;1715563;83;21066;-77
2021/01/23 01:10:36;;;;;;;46.23;20.93;;;;;;;2.15;92.68;99975.28;1715446;83;21010;-77
2021/01/23 01:13:05;;;;;;;41.20;20.20;;;;;;;2.16;93.01;99974.77;1721286;82;22215;-75
2021/01/23 01:15:33;;;;;;;41.13;19.48;;;;;;;2.17;93.07;99967.00;1712161;83;21047;-76
2021/01/23 01:18:01;;;;;;;39.40;20.30;;;;;;;2.17;93.06;99977.28;1678285;83;21036;-74
2021/01/23 01:20:29;;;;;;;36.83;19.30;;;;;;;2.17;93.02;99973.75;1691112;85;21041;-74
2021/01/23 01:22:57;;;;;;;39.30;19.87;;;;;;;2.16;93.10;99972.91;1711906;82;21033;-77
2021/01/23 01:25:26;;;;;;;35.35;18.37;;;;;;;2.19;93.18;99968.97;1712201;83;21216;-79
2021/01/23 01:27:54;;;;;;;35.70;18.80;;;;;;;2.20;93.15;99966.59;1686735;84;21271;-78
2021/01/23 01:30:23;;;;;;;39.97;20.70;;;;;;;2.22;93.17;99959.96;1674758;86;21100;-79
2021/01/23 01:32:50;;;;;;;;;;;;;;;2.26;93.22;99971.17;1687098;83;21172;-77
2021/01/23 01:35:18;;;;;;;42.48;21.93;;;;;;;2.29;93.20;99966.72;1705874;83;20247;-77
2021/01/23 01:37:46;;;;;;;48.55;22.75;;;;;;;2.30;93.16;99971.91;1682983;83;21133;-76
2021/01/23 01:40:15;;;;;;;43.07;21.73;;;;;;;2.29;93.04;99971.61;1674596;86;21540;-74
2021/01/23 01:42:42;;;;;;;42.00;21.97;;;;;;;2.28;92.94;99970.45;1678056;83;21634;-78
2021/01/23 01:45:12;;;;;;;43.45;21.93;;;;;;;2.30;93.05;99976.50;1715602;84;21160;-76
2021/01/23 01:47:40;;;;;;;37.40;19.37;;;;;;;2.30;93.05;99976.50;1716042;84;21101;-74
2021/01/23 01:50:09;;;;;;;43.15;22.02;;;;;;;2.33;93.07;99972.86;1716332;83;21085;-75
2021/01/23 01:52:37;;;;;;;40.03;21.37;;;;;;;2.36;93.00;99975.67;1715558;83;21647;-79
2021/01/23 01:55:07;;;;;;;40.65;20.80;;;;;;;2.36;92.92;99971.63;1710275;83;21090;-76
2021/01/23 01:57:34;;;;;;;40.83;21.27;;;;;;;2.37;92.92;99964.69;1702286;84;21097;-80
2021/01/23 02:00:05;;;;;;;38.42;20.55;;;;;;;2.39;92.96;99964.47;1686774;83;21115;-79
2021/01/23 02:02:50;;;;;;;38.50;19.60;;;;;;;2.39;92.88;99960.42;1698430;82;21066;-80
2021/01/23 02:05:39;;;;;;;34.87;18.90;;;;;;;2.42;92.85;99960.02;1702246;83;21584;-80
2021/01/23 02:08:19;;;;;;;35.57;19.53;;;;;;;2.43;92.82;99967.07;1667440;85;21457;-77
2021/01/23 02:11:03;;;;;;;38.60;20.73;;;;;;;2.45;92.80;99963.67;1683414;82;21065;-80
2021/01/23 02:13:47;;;;;;;40.73;21.43;;;;;;;2.50;92.86;99970.65;1697576;83;21065;-77
2021/01/23 02:16:21;;;;;;;36.90;20.77;;;;;;;2.50;92.73;99970.65;1702876;82;21561;-77
2021/01/23 02:19:17;;;;;;;38.40;19.17;;;;;;;2.49;92.65;99971.16;1701471;84;21524;-78
2021/01/23 02:22:19;;;;;;;35.43;18.87;;;;;;;2.51;92.68;99973.64;1675861;82;21164;-76
2021/01/23 02:24:47;;;;;;;33.23;18.53;;;;;;;2.53;92.68;99960.77;1678941;82;21104;-77
2021/01/23 02:27:45;;;;;;;37.23;19.87;;;;;;;2.54;92.65;99955.69;1670305;84;21064;-76
2021/01/23 02:30:25;;;;;;;38.20;20.95;;;;;;;2.57;92.56;99962.04;1706642;82;21104;-76
2021/01/23 02:32:55;;;;;;;39.90;21.13;;;;;;;2.58;92.44;99958.83;1714836;84;21149;-80
2021/01/23 02:35:25;;;;;;;32.27;18.73;;;;;;;2.56;92.29;99954.45;1710146;82;21061;-76
2021/01/23 02:37:53;;;;;;;31.53;18.17;;;;;;;2.56;92.32;99953.09;1707285;84;21633;-76
2021/01/23 02:40:21;;;;;;;34.75;18.98;;;;;;;2.58;92.28;99951.56;1705989;83;21078;-75
2021/01/23 02:42:50;;;;;;;36.07;19.23;;;;;;;2.58;92.26;99952.91;1710744;83;21080;-75
2021/01/23 02:45:18;;;;;;;35.63;20.97;;;;;;;2.63;92.30;99956.34;1709267;83;21032;-74
2021/01/23 02:47:46;;;;;;;40.23;21.90;;;;;;;2.62;92.15;99959.55;1695948;83;21112;-77
2021/01/23 02:50:16;;;;;;;48.33;25.83;;;;;;;2.62;92.10;99952.80;1709639;84;21054;-75
2021/01/23 02:53:06;;;;;;;41.13;23.80;;;;;;;2.63;92.04;99952.29;1671624;83;21068;-76
2021/01/23 02:55:36;;;;;;;43.80;25.40;;;;;;;2.62;91.92;99948.75;1665276;86;21097;-75
2021/01/23 02:58:10;;;;;;;41.77;24.13;;;;;;;2.60;91.88;99945.42;1688660;83;20988;-77
2021/01/23 03:00:38;;;;;;;40.58;23.35;;;;;;;2.62;91.86;99946.05;1715188;84;21077;-78
2021/01/23 03:03:05;;;;;;;42.08;24.57;;;;;;;2.62;91.72;99943.86;1713482;82;21038;-77
2021/01/23 03:05:35;;;;;;;41.98;24.05;;;;;;;2.59;91.69;99943.75;1715157;84;21050;-77
2021/01/23 03:08:04;;;;;;;39.43;22.97;;;;;;;2.57;91.63;99940.42;1696642;82;21069;-76
2021/01/23 03:10:40;;;;;;;37.13;21.68;;;;;;;2.54;91.59;99949.77;1674294;86;21208;-77
2021/01/23 03:13:09;;;;;;;41.00;22.77;;;;;;;2.55;91.59;99941.16;1703140;82;21021;-76
2021/01/23 03:15:37;;;;;;;40.03;23.13;;;;;;;2.56;91.61;99949.55;1721906;83;21105;-76
2021/01/23 03:18:05;;;;;;;44.35;24.12;;;;;;;2.55;91.46;99951.96;1696473;83;21025;-77
2021/01/23 03:20:33;;;;;;;40.10;23.17;;;;;;;2.54;91.46;99944.88;1712382;83;21092;-76
2021/01/23 03:23:01;;;;;;;39.78;22.87;;;;;;;2.54;91.41;99944.88;1713137;82;21046;-74
2021/01/23 03:25:30;;;;;;;43.02;22.58;;;;;;;2.51;91.35;99942.58;1674509;86;21168;-76
2021/01/23 03:27:58;;;;;;;34.73;20.52;;;;;;;2.50;91.36;99945.80;1674458;84;21513;-76
2021/01/23 03:30:28;;;;;;;;;;;;;;;2.52;91.33;99946.96;1677235;82;21077;-76
2021/01/23 03:32:57;;;;;;;43.37;23.63;;;;;;;2.53;91.32;99945.91;1674256;83;20573;-77
2021/01/23 03:35:25;;;;;;;43.30;24.50;;;;;;;2.53;91.38;99939.98;1674465;82;21208;-75
2021/01/23 03:37:53;;;;;;;45.63;26.97;;;;;;;2.54;91.22;99944.88;1674345;83;21223;-77
2021/01/23 03:40:21;;;;;;;48.45;27.40;;;;;;;2.53;91.20;99940.50;1674231;82;21135;-76
2021/01/23 03:42:49;;;;;;;39.42;22.90;;;;;;;2.52;91.22;99932.11;1675900;84;21068;-83
2021/01/23 03:45:17;;;;;;;40.30;22.52;;;;;;;2.49;91.14;99936.05;1696887;83;21032;-78
2021/01/23 03:47:45;;;;;;;37.55;22.70;;;;;;;2.48;91.15;99937.58;1708101;84;21240;-78
2021/01/23 03:50:13;;;;;;;39.85;22.20;;;;;;;2.47;91.23;99934.07;1692974;83;21052;-78
2021/01/23 03:52:41;;;;;;;34.95;20.85;;;;;;;2.48;91.21;99941.13;1712130;83;21082;-77
2021/01/23 03:55:10;;;;;;;37.42;21.33;;;;;;;2.49;91.23;99939.26;1703789;83;21105;-81
2021/01/23 03:57:38;;;;;;;40.60;23.33;;;;;;;2.49;91.15;99944.66;1715412;83;21058;-80
2021/01/23 04:00:10;;;;;;;44.97;24.03;;;;;;;2.50;91.20;99941.74;1714292;83;21078;-77
2021/01/23 04:02:38;;;;;;;39.37;22.73;;;;;;;2.52;91.21;99940.20;1708899;82;21124;-78
2021/01/23 04:05:08;;;;;;;36.87;21.40;;;;;;;2.53;91.21;99932.40;1686634;85;21109;-77
2021/01/23 04:07:36;;;;;;;37.17;20.13;;;;;;;2.54;91.17;99936.78;1713647;83;21540;-77
2021/01/23 04:10:06;;;;;;;46.80;25.57;;;;;;;2.54;91.07;99934.91;1715404;83;21034;-76
2021/01/23 04:12:34;;;;;;;41.33;22.17;;;;;;;2.55;91.05;99934.41;1713043;83;21618;-85
2021/01/23 04:15:02;;;;;;;43.25;23.90;;;;;;;2.58;91.04;99937.21;1716332;84;21152;-76
2021/01/23 04:17:31;;;;;;;40.17;23.30;;;;;;;2.59;91.00;99930.24;1684984;83;21164;-82
2021/01/23 04:19:59;;;;;;;38.58;21.85;;;;;;;2.59;90.94;99936.99;1707694;84;21046;-82
2021/01/23 04:22:27;;;;;;;37.45;20.48;;;;;;;2.60;91.02;99940.02;1653112;84;21160;-75
2021/01/23 04:24:55;;;;;;;31.87;19.07;;;;;;;2.60;90.98;99945.42;1674701;86;21076;-76
2021/01/23 04:27:22;;;;;;;32.05;18.70;;;;;;;2.62;91.01;99942.50;1691095;83;21173;-83
2021/01/23 04:29:50;;;;;;;32.47;19.63;;;;;;;2.62;90.96;99948.75;1715562;83;21089;-77
2021/01/23 04:32:18;;;;;;;35.67;20.43;;;;;;;2.65;90.96;99945.64;1713273;83;21509;-78
2021/01/23 04:34:46;;;;;;;36.15;21.42;;;;;;;2.67;90.96;99948.13;1711467;84;21093;-76
2021/01/23 04:37:13;;;;;;;38.48;23.45;;;;;;;2.69;90.89;99945.53;1709742;83;21672;-75
2021/01/23 04:39:41;;;;;;;34.97;20.63;;;;;;;2.68;90.84;99953.34;1696467;84;21057;-77
2021/01/23 04:42:09;;;;;;;35.83;20.57;;;;;;;2.67;90.80;99947.62;1688095;84;21085;-76
2021/01/23 04:44:37;;;;;;;33.15;18.70;;;;;;;2.67;90.79;99948.13;1698471;83;21173;-75
2021/01/23 04:47:05;;;;;;;30.20;17.33;;;;;;;2.66;90.81;99945.13;1715088;84;21089;-72
2021/01/23 04:49:34;;;;;;;33.28;18.48;;;;;;;2.66;90.80;99949.99;1722493;82;21828;-79
2021/01/23 04:52:05;;;;;;;29.85;17.65;;;;;;;2.66;90.78;99948.64;1697368;83;21103;-78
2021/01/23 04:54:33;;;;;;;35.57;20.13;;;;;;;2.66;90.77;99947.84;1678259;82;21100;-75
2021/01/23 04:57:02;;;;;;;38.47;20.73;;;;;;;2.67;90.68;99948.97;1688562;84;21172;-76
2021/01/23 04:59:30;;;;;;;35.45;20.50;;;;;;;2.67;90.61;99961.13;1702273;83;21025;-75
2021/01/23 05:02:17;;;;;;;31.73;19.00;;;;;;;2.67;90.64;99962.48;1713753;81;21100;-73
2021/01/23 05:04:47;;;;;;;34.63;19.57;;;;;;;2.66;90.55;99956.75;1711790;82;21171;-78
2021/01/23 05:07:32;;;;;;;34.40;18.77;;;;;;;2.65;90.55;99957.80;1724369;83;21155;-78
2021/01/23 05:10:23;;;;;;;35.90;18.77;;;;;;;2.67;90.59;99957.58;1696253;82;21131;-74
2021/01/23 05:12:52;;;;;;;37.80;19.93;;;;;;;2.68;90.60;99957.40;1711529;84;21509;-76
2021/01/23 05:15:33;;;;;;;38.33;20.23;;;;;;;2.70;90.55;99958.02;1706073;82;21156;-76
2021/01/23 05:18:07;;;;;;;33.47;19.60;;;;;;;2.73;90.59;99958.13;1715478;83;21491;-75
2021/01/23 05:20:48;;;;;;;33.80;19.37;;;;;;;2.72;90.47;99959.99;1714347;82;21085;-76
2021/01/23 05:23:22;;;;;;;33.03;18.93;;;;;;;2.71;90.36;99954.27;1715145;83;21025;-79
2021/01/23 05:25:56;;;;;;;35.87;18.90;;;;;;;2.73;90.42;99959.48;1687452;83;21207;-82
2021/01/23 05:28:36;;;;;;;36.00;19.73;;;;;;;2.73;90.40;99954.08;1721591;82;21041;-79
2021/01/23 05:31:19;;;;;;;35.87;19.87;;;;;;;2.73;90.35;99956.27;1719395;82;21057;-82
2021/01/23 05:33:47;;;;;;;35.37;20.07;;;;;;;2.74;90.24;99953.86;1681458;82;21005;-80
2021/01/23 05:36:15;;;;;;;32.73;18.95;;;;;;;2.72;90.26;99942.43;1722103;82;21068;-73
2021/01/23 05:38:45;;;;;;;33.30;19.37;;;;;;;2.71;90.24;99942.10;1699086;84;21157;-77
2021/01/23 05:41:15;;;;;;;35.43;19.77;;;;;;;2.71;90.24;99946.70;1706677;82;21124;-74
2021/01/23 05:43:51;;;;;;;34.83;19.37;;;;;;;2.69;90.25;99942.83;1710930;82;21037;-75
2021/01/23 05:46:30;;;;;;;35.17;19.93;;;;;;;2.69;90.30;99945.53;1709380;83;21141;-74
2021/01/23 05:48:59;;;;;;;34.03;19.37;;;;;;;2.68;90.33;99946.59;1719095;83;21399;-74
2021/01/23 05:51:27;;;;;;;42.00;20.37;;;;;;;2.70;90.46;99948.56;1709019;82;21119;-77
2021/01/23 05:53:55;;;;;;;36.83;19.32;;;;;;;2.74;90.52;99942.20;1677847;85;21040;-74
2021/01/23 05:56:24;;;;;;;38.73;20.03;;;;;;;2.79;90.51;99943.77;1687829;83;21297;-74
2021/01/23 05:58:52;;;;;;;38.70;20.12;;;;;;;2.80;90.38;99942.23;1715900;83;21441;-78
2021/01/23 06:01:21;;;;;;;34.90;20.47;;;;;;;2.80;90.35;99941.40;1719594;82;21129;-78
2021/01/23 06:03:51;;;;;;;38.23;21.77;;;;;;;2.81;90.28;99945.78;1679166;83;21038;-78
2021/01/23 06:06:19;;;;;;;39.80;21.80;;;;;;;2.79;90.26;99937.02;1678638;85;21096;-72
2021/01/23 06:08:51;;;;;;;44.77;23.20;;;;;;;2.78;90.28;99940.27;1678858;83;21548;-74
2021/01/23 06:11:27;;;;;;;44.87;22.93;;;;;;;2.78;90.46;99929.97;1679090;85;21580;-78
2021/01/23 06:13:56;;;;;;;38.87;21.40;;;;;;;2.78;90.48;99937.56;1702851;83;21466;-75
2021/01/23 06:16:37;;;;;;;45.50;23.63;;;;;;;2.78;90.60;99935.38;1694636;84;21127;-78
2021/01/23 06:19:20;;;;;;;45.03;22.57;;;;;;;2.78;90.70;99932.16;1697379;83;21504;-74
2021/01/23 06:21:51;;;;;;;47.50;22.50;;;;;;;2.78;90.74;99933.52;1694754;84;21101;-78
2021/01/23 06:24:34;;;;;;;41.10;21.10;;;;;;;2.77;90.81;99930.48;1700081;83;21009;-77
2021/01/23 06:27:02;;;;;;;39.67;21.17;;;;;;;2.78;90.86;99929.97;1700321;84;21129;-78
2021/01/23 06:29:37;;;;;;;;;;;;;;;2.78;90.95;99932.67;1711978;83;21128;-75
2021/01/23 06:32:23;;;;;;;42.23;21.70;;;;;;;2.78;91.04;99935.38;1715394;84;20243;-78
2021/01/23 06:34:57;;;;;;;41.17;20.87;;;;;;;2.79;91.14;99931.10;1718920;83;21132;-77
2021/01/23 06:37:37;;;;;;;41.70;21.57;;;;;;;2.82;91.17;99931.20;1709367;83;21517;-78
2021/01/23 06:40:08;;;;;;;46.97;22.03;;;;;;;2.82;91.18;99937.97;1704723;83;21393;-74
2021/01/23 06:42:47;;;;;;;40.17;20.67;;;;;;;2.84;91.29;99935.38;1717793;82;21104;-75
2021/01/23 06:45:22;;;;;;;41.83;21.60;;;;;;;2.85;91.24;99934.34;1696947;83;21517;-76
2021/01/23 06:47:54;;;;;;;41.07;21.50;;;;;;;2.85;91.27;99934.34;1723038;82;21154;-80
2021/01/23 06:50:36;;;;;;;48.23;23.50;;;;;;;2.88;91.36;99939.34;1704239;83;21656;-76
2021/01/23 06:53:06;;;;;;;44.03;22.40;;;;;;;2.92;91.41;99935.17;1708743;83;21041;-80
2021/01/23 06:55:45;;;;;;;45.23;24.33;;;;;;;2.94;91.36;99938.49;1685567;83;21104;-76
2021/01/23 06:58:20;;;;;;;50.00;24.53;;;;;;;2.96;91.30;99933.70;1659514;82;21109;-78
2021/01/23 07:00:51;;;;;;;49.83;22.37;;;;;;;2.97;91.33;99931.84;1709828;82;21077;-75
2021/01/23 07:03:19;;;;;;;45.83;21.27;;;;;;;3.00;91.40;99925.52;1713780;83;21033;-75
2021/01/23 07:05:56;;;;;;;41.50;22.83;;;;;;;3.04;91.46;99922.69;1699600;83;21092;-75
2021/01/23 07:08:33;;;;;;;42.67;22.03;;;;;;;3.08;91.41;99917.20;1691525;83;21056;-76
2021/01/23 07:11:13;;;;;;;40.88;21.60;;;;;;;3.12;91.43;99917.59;1711678;82;21131;-79
2021/01/23 07:14:06;;;;;;;43.43;22.20;;;;;;;3.15;91.41;99922.08;1707861;82;21040;-78
2021/01/23 07:16:39;;;;;;;40.87;21.80;;;;;;;3.18;91.44;99926.23;1705821;82;21536;-76
2021/01/23 07:19:08;;;;;;;43.77;21.30;;;;;;;3.23;91.41;99926.95;1705819;82;21012;-80
2021/01/23 07:21:40;;;;;;;37.83;20.40;;;;;;;3.23;91.22;99925.61;1714221;83;21077;-78
2021/01/23 07:24:09;;;;;;;42.93;22.07;;;;;;;3.25;91.23;99923.52;1698143;83;21016;-78
2021/01/23 07:26:40;;;;;;;43.37;22.50;;;;;;;3.27;91.24;99919.56;1702408;82;21133;-76
2021/01/23 07:29:11;;;;;;;42.25;22.05;;;;;;;3.28;91.18;99921.23;1666689;85;21512;-79
2021/01/23 07:31:41;;;;;;;50.83;23.77;;;;;;;3.30;91.12;99919.66;1722567;82;21121;-78
2021/01/23 07:34:11;;;;;;;39.38;21.25;;;;;;;3.30;90.93;99929.12;1693896;85;21176;-77
2021/01/23 07:36:43;;;;;;;41.27;21.23;;;;;;;3.29;90.92;99930.19;1722615;82;21244;-76
2021/01/23 07:39:16;;;;;;;43.02;22.35;;;;;;;3.29;90.84;99931.54;1681682;85;21128;-77
2021/01/23 07:41:48;;;;;;;38.33;21.53;;;;;;;3.28;90.73;99931.22;1700373;82;21599;-81
2021/01/23 07:44:17;;;;;;;41.37;21.67;;;;;;;3.28;90.75;99936.62;1716007;82;20999;-78
2021/01/23 07:46:46;;;;;;;48.08;21.55;;;;;;;3.28;90.73;99939.33;1723926;83;21132;-78
2021/01/23 07:49:22;;;;;;;42.75;22.22;;;;;;;3.30;90.80;99938.59;1719189;82;21013;-77
2021/01/23 07:52:07;;;;;;;41.53;22.27;;;;;;;3.28;90.66;99933.92;1708316;84;21074;-81
2021/01/23 07:54:51;;;;;;;42.53;22.90;;;;;;;3.28;90.66;99935.27;1674193;83;21060;-77
2021/01/23 07:57:19;;;;;;;43.23;22.50;;;;;;;3.28;90.57;99931.22;1679016;84;21115;-75
2021/01/23 07:59:47;;;;;;;44.27;22.45;;;;;;;3.29;90.67;99928.84;1679102;83;21050;-75
2021/01/23 08:02:16;;;;;;;43.77;22.33;;;;;;;3.32;90.65;99933.80;1701655;83;21127;-74
2021/01/23 08:04:51;;;;;;;49.15;22.22;;;;;;;3.34;90.62;99931.75;1684865;82;21036;-76
2021/01/23 08:07:29;;;;;;;43.43;24.27;;;;;;;3.35;90.51;99929.33;1646145;86;21076;-80
2021/01/23 08:10:07;;;;;;;40.63;22.35;;;;;;;3.36;90.47;99936.42;1727002;82;21013;-80
2021/01/23 08:12:36;;;;;;;45.47;22.50;;;;;;;3.36;90.47;99929.66;1722233;83;21089;-76
2021/01/23 08:15:06;;;;;;;41.87;21.97;;;;;;;3.37;90.51;99935.36;1700918;83;21057;-79
2021/01/23 08:17:46;;;;;;;40.80;21.73;;;;;;;3.38;90.51;99929.75;1720309;82;21108;-78
2021/01/23 08:20:33;;;;;;;41.27;21.20;;;;;;;3.40;90.56;99928.18;1680881;82;21038;-80
2021/01/23 08:23:15;;;;;;;42.88;20.43;;;;;;;3.43;90.46;99931.31;1686671;84;21038;-81
2021/01/23 08:25:54;;;;;;;40.08;20.20;;;;;;;3.45;90.35;99929.22;1712060;82;21178;-81
2021/01/23 08:28:43;;;;;;;37.25;19.70;;;;;;;3.45;90.29;99922.97;1715419;83;21026;-82
2021/01/23 08:31:22;;;;;;;36.17;19.98;;;;;;;3.48;90.22;99918.50;1686671;82;21196;-78
2021/01/23 08:33:55;;;;;;;36.40;18.92;;;;;;;3.52;90.16;99921.08;1673981;86;21049;-77
2021/01/23 08:36:26;;;;;;;40.92;20.30;;;;;;;3.55;90.12;99923.37;1680876;82;21247;-77
2021/01/23 08:39:06;;;;;;;39.30;21.10;;;;;;;3.56;90.00;99919.63;1690803;85;21041;-78
2021/01/23 08:41:35;;;;;;;37.58;20.65;;;;;;;3.59;90.05;99909.20;1706473;82;21101;-78
2021/01/23 08:44:06;;;;;;;37.17;19.62;;;;;;;3.61;89.85;99909.00;1703135;83;21511;-77
2021/01/23 08:46:35;;;;;;;37.85;19.73;;;;;;;3.61;89.82;99902.23;1712388;83;21194;-75
2021/01/23 08:49:04;;;;;;;40.55;20.77;;;;;;;3.61;89.72;99910.36;1720939;83;21006;-78
2021/01/23 08:51:33;;;;;;;39.18;19.98;;;;;;;3.61;89.71;99906.30;1711419;82;21618;-72
2021/01/23 08:54:01;;;;;;;;;;;;;;;3.61;89.59;99904.94;1712887;83;21413;-77
2021/01/23 08:56:29;;;;;;;39.73;20.27;;;;;;;3.60;89.59;99904.11;1723099;81;20493;-78
2021/01/23 08:58:56;;;;;;;39.63;19.10;;;;;;;3.63;89.55;99910.97;1733477;82;20994;-76
2021/01/23 09:01:25;;;;;;;;;;;;;;;3.66;89.53;99910.03;1728751;82;21125;-79
2021/01/23 09:03:53;;;;;;;38.73;20.60;;;;;;;3.67;89.44;99907.63;1720686;83;20243;-76
2021/01/23 09:06:21;;;;;;;38.80;20.48;;;;;;;3.70;89.40;99915.84;1720287;83;21077;-80
2021/01/23 09:08:49;;;;;;;39.35;21.62;;;;;;;3.71;89.24;99908.04;1736846;82;21033;-79
2021/01/23 09:11:17;;;;;;;35.00;18.92;;;;;;;3.71;89.20;99908.87;1745147;82;21073;-79
2021/01/23 09:13:45;;;;;;;37.33;19.52;;;;;;;3.73;89.12;99910.00;1723967;82;20989;-78
2021/01/23 09:16:12;;;;;;;38.57;19.33;;;;;;;3.72;89.00;99903.75;1705732;82;21121;-75
2021/01/23 09:18:40;;;;;;;42.27;19.10;;;;;;;3.72;89.04;99909.68;1698453;82;21034;-75
2021/01/23 09:21:09;;;;;;;40.15;18.50;;;;;;;3.71;89.04;99902.11;1706180;82;21186;-75
2021/01/23 09:23:38;;;;;;;34.92;18.82;;;;;;;3.71;89.08;99902.63;1679412;82;21030;-76
2021/01/23 09:26:06;;;;;;;42.93;20.30;;;;;;;3.70;89.12;99900.95;1735214;82;21506;-79
2021/01/23 09:28:33;;;;;;;43.48;18.98;;;;;;;3.71;89.17;99897.21;1693790;83;21210;-77
2021/01/23 09:31:01;;;;;;;39.58;21.40;;;;;;;3.72;89.12;99892.09;1678390;84;21101;-79
2021/01/23 09:33:30;;;;;;;38.88;20.17;;;;;;;3.72;89.16;99893.44;1704033;83;21120;-79
2021/01/23 09:35:59;;;;;;;38.80;21.05;;;;;;;3.73;89.19;99891.06;1699377;84;21129;-80
2021/01/23 09:38:27;;;;;;;38.75;21.97;;;;;;;3.74;89.13;99894.09;1711400;83;21200;-76
2021/01/23 09:40:55;;;;;;;42.00;23.18;;;;;;;3.73;89.15;99890.55;1682097;84;21105;-78
2021/01/23 09:43:23;;;;;;;52.93;24.77;;;;;;;3.75;89.16;99886.26;1693183;85;21057;-73
2021/01/23 09:45:51;;;;;;;48.48;25.12;;;;;;;3.77;89.16;99874.17;1706682;83;21513;-73
2021/01/23 09:48:20;;;;;;;58.00;31.45;;;;;;;3.72;88.92;99862.31;1720798;83;21504;-77
2021/01/23 09:50:48;;;;;;;56.35;32.40;;;;;;;3.72;88.92;99862.31;1699553;82;21054;-76
2021/01/23 09:53:16;;;;;;;59.08;31.70;;;;;;;3.73;88.98;99868.05;1715431;82;21062;-78
2021/01/23 09:55:44;;;;;;;53.60;29.85;;;;;;;3.72;89.02;99860.97;1692439;82;21148;-79
2021/01/23 09:58:12;;;;;;;;;;;;;;;3.72;89.02;99872.63;1717659;84;21537;-72
2021/01/23 10:00:41;;;;;;;;;;;;;;;3.70;89.06;99872.53;1720139;82;20160;-73
2021/01/23 10:03:08;;;;;;;55.15;29.00;;;;;;;3.68;89.05;99878.69;1720495;82;20458;-78
2021/01/23 10:05:36;;;;;;;48.08;24.72;;;;;;;3.66;89.13;99875.37;1681131;83;21497;-78
2021/01/23 10:08:05;;;;;;;44.65;21.70;;;;;;;3.67;89.12;99879.72;1690945;85;21129;-78
2021/01/23 10:10:34;;;;;;;44.13;22.20;;;;;;;3.63;89.02;99872.56;1648890;83;21030;-72
2021/01/23 10:13:02;;;;;;;47.90;21.37;;;;;;;3.61;89.16;99867.06;1690916;83;21530;-73
2021/01/23 10:15:32;;;;;;;39.45;20.85;;;;;;;3.65;89.37;99868.28;1674028;82;21026;-83
2021/01/23 10:18:00;;;;;;;42.15;21.07;;;;;;;3.67;89.24;99870.25;1718527;83;21739;-78
2021/01/23 10:20:28;;;;;;;;;;;;;;;3.71;89.31;99863.38;1713521;83;21002;-76
2021/01/23 10:22:56;;;;;;;46.60;21.97;;;;;;;3.72;89.17;99863.16;1694335;83;20168;-79
2021/01/23 10:25:24;;;;;;;;;;;;;;;3.74;89.20;99872.44;1695923;84;21026;-79
2021/01/23 10:27:52;;;;;;;45.03;21.27;;;;;;;3.73;89.16;99872.11;1713997;82;20187;-79
2021/01/23 10:30:22;;;;;;;46.80;22.20;;;;;;;3.77;89.24;99866.56;1664923;85;21017;-78
2021/01/23 10:32:54;;;;;;;48.02;22.10;;;;;;;3.78;89.13;99864.18;1667473;84;21082;-77
2021/01/23 10:35:22;;;;;;;41.83;21.73;;;;;;;3.80;89.12;99860.22;1714183;83;21384;-77
2021/01/23 10:37:49;;;;;;;43.95;21.42;;;;;;;3.81;88.98;99854.28;1694958;82;21133;-78
2021/01/23 10:40:17;;;;;;;40.98;20.95;;;;;;;3.81;88.88;99855.64;1712149;84;21469;-78
2021/01/23 10:42:45;;;;;;;42.98;21.07;;;;;;;3.81;88.91;99850.22;1698748;83;21164;-77
2021/01/23 10:45:13;;;;;;;48.68;21.82;;;;;;;3.83;88.84;99857.60;1674902;85;21104;-78
2021/01/23 10:47:41;;;;;;;43.15;20.43;;;;;;;3.83;88.87;99852.19;1681047;83;21152;-79
2021/01/23 10:50:13;;;;;;;43.10;18.67;;;;;;;3.82;88.60;99853.22;1674509;86;21058;-79
2021/01/23 10:52:40;;;;;;;40.15;18.92;;;;;;;3.82;88.66;99853.22;1701406;83;21105;-79
2021/01/23 10:55:09;;;;;;;39.83;20.07;;;;;;;3.85;88.77;99856.86;1674958;86;21571;-79
2021/01/23 10:57:37;;;;;;;40.92;20.57;;;;;;;3.86;88.54;99849.06;1674829;86;21144;-79
2021/01/23 11:00:07;;;;;;;43.13;21.87;;;;;;;3.89;88.56;99849.98;1699411;83;21049;-79
2021/01/23 11:02:39;;;;;;;46.33;22.02;;;;;;;3.89;88.44;99859.98;1709369;83;21110;-79
2021/01/23 11:05:11;;;;;;;39.40;21.65;;;;;;;3.86;88.41;99854.47;1703119;83;21437;-79
2021/01/23 11:07:41;;;;;;;40.17;21.00;;;;;;;3.82;88.23;99849.16;1696731;84;21219;-77
2021/01/23 11:10:12;;;;;;;40.55;20.30;;;;;;;3.80;88.26;99843.14;1684077;83;21070;-78
2021/01/23 11:12:40;;;;;;;39.88;19.02;;;;;;;3.79;88.39;99837.44;1715227;83;21074;-79
2021/01/23 11:15:09;;;;;;;33.92;19.57;;;;;;;3.79;88.39;99832.83;1706338;83;21077;-77
2021/01/23 11:17:38;;;;;;;36.88;19.92;;;;;;;3.77;88.42;99830.86;1701479;84;21128;-78
2021/01/23 11:20:09;;;;;;;41.23;19.40;;;;;;;3.79;88.39;99830.12;1690161;83;21587;-77
2021/01/23 11:22:37;;;;;;;41.50;18.85;;;;;;;3.82;88.44;99830.21;1690900;85;21120;-77
2021/01/23 11:25:07;;;;;;;40.63;19.52;;;;;;;3.83;88.40;99832.72;1714503;82;21267;-75
2021/01/23 11:27:35;;;;;;;37.25;18.12;;;;;;;3.84;88.31;99824.89;1689088;83;21100;-77
2021/01/23 11:30:05;;;;;;;40.60;18.80;;;;;;;3.86;88.25;99823.34;1677679;83;21026;-76
2021/01/23 11:32:35;;;;;;;41.70;18.55;;;;;;;3.85;88.15;99823.02;1693873;83;21194;-78
2021/01/23 11:35:06;;;;;;;37.65;19.27;;;;;;;3.87;88.27;99827.72;1719904;82;21505;-79
2021/01/23 11:37:35;;;;;;;34.98;18.23;;;;;;;3.87;88.16;99830.95;1709956;84;21637;-74
2021/01/23 11:40:07;;;;;;;37.08;18.42;;;;;;;3.89;88.22;99828.84;1707015;84;21085;-77
2021/01/23 11:42:35;;;;;;;35.17;18.95;;;;;;;3.89;88.21;99824.27;1712670;83;21117;-76
2021/01/23 11:45:06;;;;;;;35.33;19.05;;;;;;;3.87;88.22;99827.72;1725067;83;21076;-79